Bettina K — PBEW — position and weather

sailwx.info

Track history (hours):
 
Tides and Currents Weather Stations Pressure Air Temp Water Temp Dewpoint Dewpoint Depression Visibility Wind Speed Wind Dir Waves Ship Positions

Bettina K

Last reported at 2016-Jul-29 01:32 UTC. Time now 2016-Jul-29 02:05 UTC.
Position N 51°06' E 003°45'.

Length 88 m; draft 4.7 m.

Type: Ship. MMSI: 244730469.

Date/timePositionNaut miles runAvg speedWind from/ knotsBaromVisibWave heightAir tempDewpointWater temp
2016-Jul-29 01:32N 51°06' E 003°45'0 0.0
2016-Jul-29 00:32N 51°06' E 003°45'0 0.0
2016-Jul-28 23:32N 51°06' E 003°45'0 0.0
2016-Jul-28 22:32N 51°06' E 003°45'0 0.0
2016-Jul-28 21:26N 51°06' E 003°45'0 0.0
2016-Jul-28 20:32N 51°06' E 003°45'0 0.0
2016-Jul-28 19:32N 51°06' E 003°45'0 0.0
2016-Jul-28 18:32N 51°06' E 003°45'0 0.0
2016-Jul-28 17:32N 51°06' E 003°45'0 0.0
2016-Jul-28 16:32N 51°06' E 003°45'0 0.0
2016-Jul-28 15:32N 51°06' E 003°45'0 0.0
2016-Jul-28 14:32N 51°06' E 003°45'0 0.0
2016-Jul-28 13:32N 51°06' E 003°45'0 0.0
2016-Jul-28 12:32N 51°06' E 003°45'0 0.0
2016-Jul-28 11:32N 51°06' E 003°45'0 0.1
2016-Jul-28 10:32N 51°05' E 003°45'0 0.0
2016-Jul-28 09:31N 51°05' E 003°45'0 0.0
2016-Jul-28 08:32N 51°05' E 003°45'0 0.0
2016-Jul-28 07:32N 51°05' E 003°45'0 0.0
2016-Jul-28 06:32N 51°05' E 003°45'0 0.0
2016-Jul-28 05:32N 51°05' E 003°45'0 0.0
2016-Jul-28 04:32N 51°05' E 003°45'0 0.0
2016-Jul-28 03:32N 51°05' E 003°45'0 0.0
2016-Jul-28 02:32N 51°05' E 003°45'0 0.0
2016-Jul-28 01:32N 51°05' E 003°45'0 0.0
2016-Jul-28 00:32N 51°05' E 003°45'0 0.0
2016-Jul-27 23:32N 51°05' E 003°45'0 0.0
2016-Jul-27 22:32N 51°05' E 003°45'0 0.0
2016-Jul-27 21:32N 51°05' E 003°45'0 0.2
2016-Jul-27 20:32N 51°06' E 003°45'0 0.0
2016-Jul-27 19:32N 51°06' E 003°45'0 0.0
2016-Jul-27 18:32N 51°06' E 003°45'0 0.0
2016-Jul-27 17:32N 51°06' E 003°45'0 0.0
2016-Jul-27 16:32N 51°06' E 003°45'0 0.0
2016-Jul-27 15:32N 51°06' E 003°45'0 0.0
2016-Jul-27 14:32N 51°06' E 003°45'0 0.0
2016-Jul-27 13:32N 51°06' E 003°45'0 0.0
2016-Jul-27 12:32N 51°06' E 003°45'0 0.0
2016-Jul-27 11:32N 51°06' E 003°45'0 0.0
2016-Jul-27 10:29N 51°06' E 003°45'0 0.0
2016-Jul-27 09:30N 51°06' E 003°45'0 0.0
2016-Jul-27 08:32N 51°06' E 003°45'0 0.0
2016-Jul-27 07:29N 51°06' E 003°45'0 0.0
2016-Jul-27 06:32N 51°06' E 003°45'0 0.0
2016-Jul-27 05:32N 51°06' E 003°45'0 0.0
2016-Jul-27 04:32N 51°06' E 003°45'0 0.0
2016-Jul-27 03:29N 51°06' E 003°45'0 0.0
2016-Jul-27 02:32N 51°06' E 003°45'0 0.0
2016-Jul-27 01:32N 51°06' E 003°45'0 0.0
2016-Jul-27 00:32N 51°06' E 003°45'0 0.0
2016-Jul-26 23:32N 51°06' E 003°45'0 0.0
2016-Jul-26 22:32N 51°06' E 003°45'0 0.0
2016-Jul-26 21:32N 51°06' E 003°45'0 0.0
2016-Jul-26 20:32N 51°06' E 003°45'0 0.0
2016-Jul-26 19:32N 51°06' E 003°45'0 0.0
2016-Jul-26 18:32N 51°06' E 003°45'0 0.0
2016-Jul-26 17:32N 51°06' E 003°45'0 0.0
2016-Jul-26 16:29N 51°06' E 003°45'0 0.0
2016-Jul-26 15:32N 51°06' E 003°45'0 0.0
2016-Jul-26 14:32N 51°06' E 003°45'0 0.0
2016-Jul-26 13:32N 51°06' E 003°45'0 0.0
2016-Jul-26 12:32N 51°06' E 003°45'0 0.0
2016-Jul-26 11:32N 51°06' E 003°45'0 0.0
2016-Jul-26 10:32N 51°06' E 003°45'0 0.0
2016-Jul-26 09:32N 51°06' E 003°45'0 0.0
2016-Jul-26 08:34N 51°06' E 003°45'7 7.1
2016-Jul-26 07:33N 51°12' E 003°48'6 5.9
2016-Jul-26 06:33N 51°18' E 003°50'2 2.2
2016-Jul-26 05:33N 51°20' E 003°49'7 6.6
2016-Jul-26 04:34N 51°25' E 003°41'1110.8
2016-Jul-26 03:33N 51°31' E 003°26'1110.7
2016-Jul-26 02:31N 51°41' E 003°19'8 7.8
2016-Jul-26 01:33N 51°48' E 003°20'1 0.4
2016-Jul-25 22:06N 51°49' E 003°22'0 0.0
2016-Jul-25 19:30N 51°49' E 003°22'0 0.0
2016-Jul-25 18:24N 51°49' E 003°22'0 0.0
2016-Jul-25 17:30N 51°49' E 003°22'0 0.0
2016-Jul-25 16:30N 51°49' E 003°22'2 0.1
2016-Jul-24 21:12N 51°51' E 003°20'4 6.1
2016-Jul-24 20:32N 51°54' E 003°18'7 6.5
2016-Jul-24 19:32N 52°01' E 003°19'6 6.1
2016-Jul-24 18:30N 52°07' E 003°21'6 5.8
2016-Jul-24 17:33N 52°12' E 003°22'6 5.7
2016-Jul-24 16:30N 52°18' E 003°24'8 6.4
2016-Jul-24 15:17N 52°26' E 003°27'6 7.7
2016-Jul-24 14:33N 52°32' E 003°29'17 8.4
2016-Jul-24 12:29N 52°46' E 003°44'28 8.2
2016-Jul-24 09:05N 53°06' E 004°16'3 6.3
2016-Jul-24 08:33N 53°09' E 004°20'16 5.3
2016-Jul-24 05:32N 53°23' E 004°33'7 6.8
2016-Jul-24 04:32N 53°28' E 004°40'8 8.0
2016-Jul-24 03:29N 53°31' E 004°53'7 7.9
2016-Jul-24 02:33N 53°34' E 005°05'7 7.1
2016-Jul-24 01:33N 53°36' E 005°16'6 6.4
2016-Jul-24 00:33N 53°38' E 005°26'6 5.6
2016-Jul-23 23:33N 53°40' E 005°35'5 5.0
2016-Jul-23 22:33N 53°42' E 005°43'5 5.1
2016-Jul-23 21:29N 53°43' E 005°52'5 5.5
2016-Jul-23 20:32N 53°45' E 006°00'6 6.0
2016-Jul-23 19:33N 53°47' E 006°10'7 7.3
2016-Jul-23 18:33N 53°49' E 006°21'8 8.0
2016-Jul-23 17:33N 53°51' E 006°35'8 7.9
2016-Jul-23 16:33N 53°53' E 006°48'8 7.6
2016-Jul-23 15:33N 53°55' E 006°60'8 7.0
2016-Jul-23 14:28N 53°57' E 007°12'8 6.0
2016-Jul-23 13:06N 53°59' E 007°26'3 5.7
2016-Jul-23 12:33N 54°00' E 007°31'5 5.4
2016-Jul-23 11:33N 54°01' E 007°40'5 5.2
2016-Jul-23 10:33N 54°02' E 007°49'5 5.4
2016-Jul-23 09:33N 54°02' E 007°58'4 3.5
2016-Jul-23 08:33N 54°01' E 008°04'1110.9
2016-Jul-23 07:32N 53°60' E 008°23'1212.3
2016-Jul-23 06:33N 53°55' E 008°41'16 8.1
2016-Jul-23 04:33N 53°54' E 009°09'5 4.7
2016-Jul-23 03:33N 53°57' E 009°14'9 8.8
2016-Jul-23 02:31N 54°06' E 009°20'8 7.9
2016-Jul-23 01:27N 54°11' E 009°30'7 8.0
2016-Jul-23 00:33N 54°17' E 009°38'8 7.7
2016-Jul-22 23:32N 54°22' E 009°48'6 6.0
2016-Jul-22 22:33N 54°21' E 009°58'5 5.3
2016-Jul-22 21:33N 54°22' E 010°07'2 1.7
2016-Jul-22 20:33N 54°22' E 010°10'16 8.1
2016-Jul-22 18:33N 54°33' E 010°30'9 8.8
2016-Jul-22 17:33N 54°35' E 010°45'9 8.7
2016-Jul-22 16:33N 54°36' E 010°60'10 9.8
2016-Jul-22 15:33N 54°35' E 011°17'10 9.8
2016-Jul-22 14:33N 54°30' E 011°32'9 9.3
2016-Jul-22 13:33N 54°28' E 011°47'9 9.0
2016-Jul-22 12:33N 54°27' E 012°03'8 7.8
2016-Jul-22 11:33N 54°32' E 012°12'8 8.4
2016-Jul-22 10:33N 54°39' E 012°21'9 8.7
2016-Jul-22 09:33N 54°44' E 012°33'9 8.8
2016-Jul-22 08:33N 54°48' E 012°47'9 8.9
2016-Jul-22 07:33N 54°51' E 013°01'17 8.5
2016-Jul-22 05:33N 54°57' E 013°29'9 8.7
2016-Jul-22 04:33N 55°00' E 013°43'8 8.4
2016-Jul-22 03:33N 55°03' E 013°57'8 8.3
2016-Jul-22 02:33N 55°08' E 014°09'9 8.7
2016-Jul-22 01:33N 55°15' E 014°18'9 8.8
2016-Jul-22 00:33N 55°22' E 014°28'8 8.5
2016-Jul-21 23:33N 55°28' E 014°39'8 8.4
2016-Jul-21 22:33N 55°32' E 014°52'8 8.4
2016-Jul-21 21:33N 55°36' E 015°04'8 8.3
2016-Jul-21 20:33N 55°40' E 015°17'327 9.0
2016-Jul-20 08:25N 59°29' E 022°32'910.0
2016-Jul-20 07:33N 59°32' E 022°48'1210.0
2016-Jul-20 06:18N 59°36' E 023°11'710.0
2016-Jul-20 05:33N 59°38' E 023°25'1010.0
2016-Jul-20 04:33N 59°41' E 023°44'1110.0
2016-Jul-20 03:27N 59°44' E 024°05'910.3
2016-Jul-20 02:32N 59°47' E 024°23'1010.1
2016-Jul-20 01:33N 59°49' E 024°42'49 9.9
2016-Jul-19 20:33N 59°59' E 026°19'10 9.8
2016-Jul-19 19:33N 60°01' E 026°38'1010.0
2016-Jul-19 18:33N 59°60' E 026°58'10 9.6
2016-Jul-19 17:31N 60°03' E 027°17'1010.3
2016-Jul-19 16:30N 60°09' E 027°35'9 9.3
2016-Jul-19 15:33N 60°11' E 027°52'1010.0
2016-Jul-19 14:33N 60°09' E 028°11'10 9.7
2016-Jul-19 13:33N 60°04' E 028°28'38 9.6
2016-Jul-19 09:33N 59°59' E 029°44'10 9.7
2016-Jul-19 08:33N 59°55' E 030°02'6 6.0
2016-Jul-19 07:33N 59°52' E 030°13'0 0.0
2016-Jul-19 04:33N 59°52' E 030°13'0 0.0
2016-Jul-19 03:33N 59°52' E 030°13'0 0.0
2016-Jul-19 02:33N 59°52' E 030°13'0 0.0
2016-Jul-19 01:33N 59°52' E 030°13'  
Track history (hours):
 
Tides and Currents Weather Stations Pressure Air Temp Water Temp Dewpoint Dewpoint Depression Visibility Wind Speed Wind Dir Waves Ship Positions

Bettina K

Last reported at 2016-Jul-29 01:32 UTC. Time now 2016-Jul-29 02:05 UTC.
Position N 51°06' E 003°45'.

Length 88 m; draft 4.7 m.

Type: Ship. MMSI: 244730469.

Date/timePositionNaut miles runAvg speedWind from/ knotsBaromVisibWave heightAir tempDewpointWater temp
2016-Jul-29 01:32N 51°06' E 003°45'0 0.0
2016-Jul-29 00:32N 51°06' E 003°45'0 0.0
2016-Jul-28 23:32N 51°06' E 003°45'0 0.0
2016-Jul-28 22:32N 51°06' E 003°45'0 0.0
2016-Jul-28 21:26N 51°06' E 003°45'0 0.0
2016-Jul-28 20:32N 51°06' E 003°45'0 0.0
2016-Jul-28 19:32N 51°06' E 003°45'0 0.0
2016-Jul-28 18:32N 51°06' E 003°45'0 0.0
2016-Jul-28 17:32N 51°06' E 003°45'0 0.0
2016-Jul-28 16:32N 51°06' E 003°45'0 0.0
2016-Jul-28 15:32N 51°06' E 003°45'0 0.0
2016-Jul-28 14:32N 51°06' E 003°45'0 0.0
2016-Jul-28 13:32N 51°06' E 003°45'0 0.0
2016-Jul-28 12:32N 51°06' E 003°45'0 0.0
2016-Jul-28 11:32N 51°06' E 003°45'0 0.1
2016-Jul-28 10:32N 51°05' E 003°45'0 0.0
2016-Jul-28 09:31N 51°05' E 003°45'0 0.0
2016-Jul-28 08:32N 51°05' E 003°45'0 0.0
2016-Jul-28 07:32N 51°05' E 003°45'0 0.0
2016-Jul-28 06:32N 51°05' E 003°45'0 0.0
2016-Jul-28 05:32N 51°05' E 003°45'0 0.0
2016-Jul-28 04:32N 51°05' E 003°45'0 0.0
2016-Jul-28 03:32N 51°05' E 003°45'0 0.0
2016-Jul-28 02:32N 51°05' E 003°45'0 0.0
2016-Jul-28 01:32N 51°05' E 003°45'0 0.0
2016-Jul-28 00:32N 51°05' E 003°45'0 0.0
2016-Jul-27 23:32N 51°05' E 003°45'0 0.0
2016-Jul-27 22:32N 51°05' E 003°45'0 0.0
2016-Jul-27 21:32N 51°05' E 003°45'0 0.2
2016-Jul-27 20:32N 51°06' E 003°45'0 0.0
2016-Jul-27 19:32N 51°06' E 003°45'0 0.0
2016-Jul-27 18:32N 51°06' E 003°45'0 0.0
2016-Jul-27 17:32N 51°06' E 003°45'0 0.0
2016-Jul-27 16:32N 51°06' E 003°45'0 0.0
2016-Jul-27 15:32N 51°06' E 003°45'0 0.0
2016-Jul-27 14:32N 51°06' E 003°45'0 0.0
2016-Jul-27 13:32N 51°06' E 003°45'0 0.0
2016-Jul-27 12:32N 51°06' E 003°45'0 0.0
2016-Jul-27 11:32N 51°06' E 003°45'0 0.0
2016-Jul-27 10:29N 51°06' E 003°45'0 0.0
2016-Jul-27 09:30N 51°06' E 003°45'0 0.0
2016-Jul-27 08:32N 51°06' E 003°45'0 0.0
2016-Jul-27 07:29N 51°06' E 003°45'0 0.0
2016-Jul-27 06:32N 51°06' E 003°45'0 0.0
2016-Jul-27 05:32N 51°06' E 003°45'0 0.0
2016-Jul-27 04:32N 51°06' E 003°45'0 0.0
2016-Jul-27 03:29N 51°06' E 003°45'0 0.0
2016-Jul-27 02:32N 51°06' E 003°45'0 0.0
2016-Jul-27 01:32N 51°06' E 003°45'0 0.0
2016-Jul-27 00:32N 51°06' E 003°45'0 0.0
2016-Jul-26 23:32N 51°06' E 003°45'0 0.0
2016-Jul-26 22:32N 51°06' E 003°45'0 0.0
2016-Jul-26 21:32N 51°06' E 003°45'0 0.0
2016-Jul-26 20:32N 51°06' E 003°45'0 0.0
2016-Jul-26 19:32N 51°06' E 003°45'0 0.0
2016-Jul-26 18:32N 51°06' E 003°45'0 0.0
2016-Jul-26 17:32N 51°06' E 003°45'0 0.0
2016-Jul-26 16:29N 51°06' E 003°45'0 0.0
2016-Jul-26 15:32N 51°06' E 003°45'0 0.0
2016-Jul-26 14:32N 51°06' E 003°45'0 0.0
2016-Jul-26 13:32N 51°06' E 003°45'0 0.0
2016-Jul-26 12:32N 51°06' E 003°45'0 0.0
2016-Jul-26 11:32N 51°06' E 003°45'0 0.0
2016-Jul-26 10:32N 51°06' E 003°45'0 0.0
2016-Jul-26 09:32N 51°06' E 003°45'0 0.0
2016-Jul-26 08:34N 51°06' E 003°45'7 7.1
2016-Jul-26 07:33N 51°12' E 003°48'6 5.9
2016-Jul-26 06:33N 51°18' E 003°50'2 2.2
2016-Jul-26 05:33N 51°20' E 003°49'7 6.6
2016-Jul-26 04:34N 51°25' E 003°41'1110.8
2016-Jul-26 03:33N 51°31' E 003°26'1110.7
2016-Jul-26 02:31N 51°41' E 003°19'8 7.8
2016-Jul-26 01:33N 51°48' E 003°20'1 0.4
2016-Jul-25 22:06N 51°49' E 003°22'0 0.0
2016-Jul-25 19:30N 51°49' E 003°22'0 0.0
2016-Jul-25 18:24N 51°49' E 003°22'0 0.0
2016-Jul-25 17:30N 51°49' E 003°22'0 0.0
2016-Jul-25 16:30N 51°49' E 003°22'2 0.1
2016-Jul-24 21:12N 51°51' E 003°20'4 6.1
2016-Jul-24 20:32N 51°54' E 003°18'7 6.5
2016-Jul-24 19:32N 52°01' E 003°19'6 6.1
2016-Jul-24 18:30N 52°07' E 003°21'6 5.8
2016-Jul-24 17:33N 52°12' E 003°22'6 5.7
2016-Jul-24 16:30N 52°18' E 003°24'8 6.4
2016-Jul-24 15:17N 52°26' E 003°27'6 7.7
2016-Jul-24 14:33N 52°32' E 003°29'17 8.4
2016-Jul-24 12:29N 52°46' E 003°44'28 8.2
2016-Jul-24 09:05N 53°06' E 004°16'3 6.3
2016-Jul-24 08:33N 53°09' E 004°20'16 5.3
2016-Jul-24 05:32N 53°23' E 004°33'7 6.8
2016-Jul-24 04:32N 53°28' E 004°40'8 8.0
2016-Jul-24 03:29N 53°31' E 004°53'7 7.9
2016-Jul-24 02:33N 53°34' E 005°05'7 7.1
2016-Jul-24 01:33N 53°36' E 005°16'6 6.4
2016-Jul-24 00:33N 53°38' E 005°26'6 5.6
2016-Jul-23 23:33N 53°40' E 005°35'5 5.0
2016-Jul-23 22:33N 53°42' E 005°43'5 5.1
2016-Jul-23 21:29N 53°43' E 005°52'5 5.5
2016-Jul-23 20:32N 53°45' E 006°00'6 6.0
2016-Jul-23 19:33N 53°47' E 006°10'7 7.3
2016-Jul-23 18:33N 53°49' E 006°21'8 8.0
2016-Jul-23 17:33N 53°51' E 006°35'8 7.9
2016-Jul-23 16:33N 53°53' E 006°48'8 7.6
2016-Jul-23 15:33N 53°55' E 006°60'8 7.0
2016-Jul-23 14:28N 53°57' E 007°12'8 6.0
2016-Jul-23 13:06N 53°59' E 007°26'3 5.7
2016-Jul-23 12:33N 54°00' E 007°31'5 5.4
2016-Jul-23 11:33N 54°01' E 007°40'5 5.2
2016-Jul-23 10:33N 54°02' E 007°49'5 5.4
2016-Jul-23 09:33N 54°02' E 007°58'4 3.5
2016-Jul-23 08:33N 54°01' E 008°04'1110.9
2016-Jul-23 07:32N 53°60' E 008°23'1212.3
2016-Jul-23 06:33N 53°55' E 008°41'16 8.1
2016-Jul-23 04:33N 53°54' E 009°09'5 4.7
2016-Jul-23 03:33N 53°57' E 009°14'9 8.8
2016-Jul-23 02:31N 54°06' E 009°20'8 7.9
2016-Jul-23 01:27N 54°11' E 009°30'7 8.0
2016-Jul-23 00:33N 54°17' E 009°38'8 7.7
2016-Jul-22 23:32N 54°22' E 009°48'6 6.0
2016-Jul-22 22:33N 54°21' E 009°58'5 5.3
2016-Jul-22 21:33N 54°22' E 010°07'2 1.7
2016-Jul-22 20:33N 54°22' E 010°10'16 8.1
2016-Jul-22 18:33N 54°33' E 010°30'9 8.8
2016-Jul-22 17:33N 54°35' E 010°45'9 8.7
2016-Jul-22 16:33N 54°36' E 010°60'10 9.8
2016-Jul-22 15:33N 54°35' E 011°17'10 9.8
2016-Jul-22 14:33N 54°30' E 011°32'9 9.3
2016-Jul-22 13:33N 54°28' E 011°47'9 9.0
2016-Jul-22 12:33N 54°27' E 012°03'8 7.8
2016-Jul-22 11:33N 54°32' E 012°12'8 8.4
2016-Jul-22 10:33N 54°39' E 012°21'9 8.7
2016-Jul-22 09:33N 54°44' E 012°33'9 8.8
2016-Jul-22 08:33N 54°48' E 012°47'9 8.9
2016-Jul-22 07:33N 54°51' E 013°01'17 8.5
2016-Jul-22 05:33N 54°57' E 013°29'9 8.7
2016-Jul-22 04:33N 55°00' E 013°43'8 8.4
2016-Jul-22 03:33N 55°03' E 013°57'8 8.3
2016-Jul-22 02:33N 55°08' E 014°09'9 8.7
2016-Jul-22 01:33N 55°15' E 014°18'9 8.8
2016-Jul-22 00:33N 55°22' E 014°28'8 8.5
2016-Jul-21 23:33N 55°28' E 014°39'8 8.4
2016-Jul-21 22:33N 55°32' E 014°52'8 8.4
2016-Jul-21 21:33N 55°36' E 015°04'8 8.3
2016-Jul-21 20:33N 55°40' E 015°17'327 9.0
2016-Jul-20 08:25N 59°29' E 022°32'910.0
2016-Jul-20 07:33N 59°32' E 022°48'1210.0
2016-Jul-20 06:18N 59°36' E 023°11'710.0
2016-Jul-20 05:33N 59°38' E 023°25'1010.0
2016-Jul-20 04:33N 59°41' E 023°44'1110.0
2016-Jul-20 03:27N 59°44' E 024°05'910.3
2016-Jul-20 02:32N 59°47' E 024°23'1010.1
2016-Jul-20 01:33N 59°49' E 024°42'49 9.9
2016-Jul-19 20:33N 59°59' E 026°19'10 9.8
2016-Jul-19 19:33N 60°01' E 026°38'1010.0
2016-Jul-19 18:33N 59°60' E 026°58'10 9.6
2016-Jul-19 17:31N 60°03' E 027°17'1010.3
2016-Jul-19 16:30N 60°09' E 027°35'9 9.3
2016-Jul-19 15:33N 60°11' E 027°52'1010.0
2016-Jul-19 14:33N 60°09' E 028°11'10 9.7
2016-Jul-19 13:33N 60°04' E 028°28'38 9.6
2016-Jul-19 09:33N 59°59' E 029°44'10 9.7
2016-Jul-19 08:33N 59°55' E 030°02'6 6.0
2016-Jul-19 07:33N 59°52' E 030°13'0 0.0
2016-Jul-19 04:33N 59°52' E 030°13'0 0.0
2016-Jul-19 03:33N 59°52' E 030°13'0 0.0
2016-Jul-19 02:33N 59°52' E 030°13'0 0.0
2016-Jul-19 01:33N 59°52' E 030°13'  

Dump ship's entire track history